Time;durP1;ratioP1;P1;durP2;ratioP2;P2;SDS_P1;SDS_P2;PMS_P1;PMS_P2;Temp;Humidity;BMP_temperature;BMP_pressure;BME280_temperature;BME280_humidity;BME280_pressure;Samples;Min_cycle;Max_cycle;Signal;HPM_P1;HPM_P2
2021/06/01 00:01:50;;;;;;;;;;;;;;;19.39;65.73;100468.34;5023810;28;1520;-45
2021/06/01 00:04:16;;;;;;;;;;;;;;;19.43;65.32;100463.53;5025818;28;1095;-44
2021/06/01 00:06:43;;;;;;;;;;;;;;;19.42;65.58;100472.59;5025290;28;1597;-44
2021/06/01 00:09:10;;;;;;;;;;;;;;;19.43;65.42;100480.47;5025362;28;2033;-44
2021/06/01 00:11:37;;;;;;;;;;;;;;;19.45;65.55;100474.97;5031375;28;1789;-45
2021/06/01 00:14:04;;;;;;;;;;;;;;;19.42;65.07;100473.44;5028698;28;1555;-44
2021/06/01 00:16:30;;;;;;;;;;;;;;;19.43;65.16;100485.84;5026232;28;1582;-45
2021/06/01 00:18:56;;;;;;;;;;;;;;;19.44;65.59;100473.28;5025708;28;1902;-45
2021/06/01 00:21:23;;;;;;;;;;;;;;;19.40;66.30;100467.38;5026267;28;1639;-44
2021/06/01 00:23:51;;;;;;;;;;;;;;;19.42;66.82;100462.72;5028043;28;1648;-44
2021/06/01 00:26:17;;;;;;;;;;;;;;;19.41;66.08;100461.00;5016251;28;1639;-44
2021/06/01 00:28:45;;;;;;;;;;;;;;;19.40;65.74;100466.53;5025277;28;1910;-45
2021/06/01 00:31:11;;;;;;;;;;;;;;;19.42;65.46;100446.63;5028665;28;1621;-44
2021/06/01 00:33:37;;;;;;;;;;;;;;;19.42;65.24;100457.34;5027334;28;1561;-45
2021/06/01 00:36:04;;;;;;;;;;;;;;;19.39;65.74;100454.94;5023226;28;1780;-44
2021/06/01 00:38:30;;;;;;;;;;;;;;;19.38;65.56;100461.31;5023670;28;1902;-44
2021/06/01 00:40:56;;;;;;;;;;;;;;;19.41;66.48;100446.75;5032863;28;1631;-44
2021/06/01 00:43:22;;;;;;;;;;;;;;;19.41;67.24;100450.28;5027988;28;1787;-44
2021/06/01 00:45:50;;;;;;;;;;;;;;;19.41;66.74;100450.28;5022599;28;1649;-44
2021/06/01 00:48:16;;;;;;;;;;;;;;;19.41;66.62;100444.06;5023182;28;1556;-45
2021/06/01 00:50:42;;;;;;;;;;;;;;;19.38;65.62;100453.25;5027566;28;1658;-44
2021/06/01 00:53:08;;;;;;;;;;;;;;;19.41;65.88;100449.44;5023303;28;1504;-44
2021/06/01 00:55:34;;;;;;;;;;;;;;;19.42;65.15;100457.34;5028695;28;1444;-45
2021/06/01 00:58:00;;;;;;;;;;;;;;;19.38;65.58;100450.59;5027774;28;2009;-44
2021/06/01 01:00:50;;;;;;;;;;;;;;;19.36;66.05;100452.56;5027433;28;1625;-45
2021/06/01 01:03:17;;;;;;;;;;;;;;;19.37;66.17;100453.41;5023463;28;1681;-44
2021/06/01 01:05:48;;;;;;;;;;;;;;;19.39;66.12;100449.56;5023067;28;1487;-44
2021/06/01 01:08:34;;;;;;;;;;;;;;;19.38;66.01;100450.59;5027496;28;1632;-44
2021/06/01 01:11:02;;;;;;;;;;;;;;;19.35;65.42;100432.09;5021689;28;1049;-44
2021/06/01 01:13:33;;;;;;;;;;;;;;;19.38;65.72;100445.22;5029144;28;1834;-44
2021/06/01 01:15:59;;;;;;;;;;;;;;;19.36;65.73;100431.13;5026366;28;1727;-44
2021/06/01 01:18:27;;;;;;;;;;;;;;;19.36;66.38;100438.28;5028649;28;1914;-44
2021/06/01 01:20:58;;;;;;;;;;;;;;;19.36;66.70;100446.34;5030514;28;1507;-44
2021/06/01 01:23:26;;;;;;;;;;;;;;;19.35;66.42;100442.81;5034750;28;1801;-44
2021/06/01 01:25:58;;;;;;;;;;;;;;;19.35;66.45;100442.81;5027152;28;1501;-44
2021/06/01 01:28:28;;;;;;;;;;;;;;;19.35;65.56;100432.09;5031086;28;2120;-44
2021/06/01 01:30:57;;;;;;;;;;;;;;;19.36;66.50;100438.28;5026084;28;1597;-44
2021/06/01 01:33:26;;;;;;;;;;;;;;;19.36;66.71;100447.19;5026189;28;1582;-44
2021/06/01 01:35:53;;;;;;;;;;;;;;;19.40;66.83;100453.13;5026038;28;1778;-45
2021/06/01 01:38:20;;;;;;;;;;;;;;;19.36;66.50;100455.25;5029339;28;1910;-44
2021/06/01 01:40:47;;;;;;;;;;;;;;;19.35;65.94;100441.97;5022688;28;1009;-45
2021/06/01 01:43:16;;;;;;;;;;;;;;;19.37;65.42;100431.94;5024920;28;1949;-45
2021/06/01 01:45:44;;;;;;;;;;;;;;;19.36;66.56;100443.66;5025161;28;1503;-44
2021/06/01 01:51:00;;;;;;;;;;;;;;;19.35;65.43;100428.56;5031706;28;1706;-44
2021/06/01 01:53:26;;;;;;;;;;;;;;;19.34;65.06;100435.78;5033821;28;1499;-44
2021/06/01 01:55:53;;;;;;;;;;;;;;;19.36;64.89;100439.16;5034889;28;1361;-44
2021/06/01 01:58:20;;;;;;;;;;;;;;;19.35;65.18;100428.56;5033554;28;1992;-44
2021/06/01 02:00:47;;;;;;;;;;;;;;;19.32;64.74;100435.06;5043836;22;3615;-79
2021/06/01 02:03:14;;;;;;;;;;;;;;;19.31;64.56;100438.75;5011981;28;1866;-81
2021/06/01 02:05:41;;;;;;;;;;;;;;;19.26;64.65;100436.50;5028439;28;1509;-80
2021/06/01 02:08:09;;;;;;;;;;;;;;;19.27;64.06;100426.63;5016409;28;1674;-79
2021/06/01 02:10:35;;;;;;;;;;;;;;;19.24;64.41;100429.59;5014978;28;1449;-79
2021/06/01 02:13:05;;;;;;;;;;;;;;;19.28;64.26;100433.69;5017762;28;1517;-80
2021/06/01 02:15:31;;;;;;;;;;;;;;;19.24;64.61;100438.47;5017991;28;1513;-80
2021/06/01 02:17:57;;;;;;;;;;;;;;;19.27;64.63;100437.34;5023346;28;1910;-79
2021/06/01 02:20:25;;;;;;;;;;;;;;;19.25;64.57;100425.91;5024805;28;1697;-80
2021/06/01 02:25:50;;;;;;;;;;;;;;;19.21;64.12;100433.41;5013942;28;1508;-79
2021/06/01 02:28:21;;;;;;;;;;;;;;;19.20;64.09;100433.53;5011747;28;1481;-79
2021/06/01 02:30:50;;;;;;;;;;;;;;;19.16;64.30;100429.47;5011219;28;1504;-80
2021/06/01 02:33:19;;;;;;;;;;;;;;;19.21;64.36;100433.41;5016205;28;1647;-82
2021/06/01 02:35:47;;;;;;;;;;;;;;;19.21;64.20;100432.56;5014493;28;1414;-81
2021/06/01 02:38:14;;;;;;;;;;;;;;;19.15;64.23;100431.31;5015026;28;1910;-81
2021/06/01 02:40:41;;;;;;;;;;;;;;;19.14;64.17;100428.75;5016050;28;1047;-80
2021/06/01 02:43:10;;;;;;;;;;;;;;;19.13;63.96;100432.44;5015138;28;1517;-80
2021/06/01 02:45:37;;;;;;;;;;;;;;;19.10;63.78;100424.69;5019940;28;1369;-80
2021/06/01 02:48:11;;;;;;;;;;;;;;;19.06;63.63;100418.78;5016533;28;1370;-80
2021/06/01 02:50:39;;;;;;;;;;;;;;;19.02;63.89;100420.91;5012126;28;1376;-79
2021/06/01 02:53:06;;;;;;;;;;;;;;;19.05;64.02;100423.28;5008624;28;1386;-81
2021/06/01 02:55:34;;;;;;;;;;;;;;;19.10;64.21;100430.03;5013645;28;1392;-83
2021/06/01 02:58:02;;;;;;;;;;;;;;;19.11;63.79;100426.38;5012988;28;1969;-83
2021/06/01 03:00:30;;;;;;;;;;;;;;;19.16;63.65;100418.72;5012983;28;1282;-81
2021/06/01 03:02:57;;;;;;;;;;;;;;;19.18;63.53;100432.84;5013302;28;1549;-80
2021/06/01 03:05:28;;;;;;;;;;;;;;;19.19;63.66;100429.19;5015691;28;1425;-83
2021/06/01 03:08:05;;;;;;;;;;;;;;;19.17;63.67;100420.44;5011800;28;1520;-81
2021/06/01 03:10:31;;;;;;;;;;;;;;;19.18;63.66;100424.78;5017816;28;1271;-79
2021/06/01 03:12:59;;;;;;;;;;;;;;;19.18;63.66;100432.84;5015732;28;1442;-81
2021/06/01 03:15:25;;;;;;;;;;;;;;;19.16;63.30;100430.31;5019218;28;1470;-81
2021/06/01 03:17:53;;;;;;;;;;;;;;;19.16;63.68;100434.81;5015600;28;1425;-79
2021/06/01 03:20:19;;;;;;;;;;;;;;;19.15;63.41;100428.63;5013202;28;1975;-83
2021/06/01 03:22:46;;;;;;;;;;;;;;;19.14;63.42;100429.63;5014383;28;1587;-83
2021/06/01 03:25:12;;;;;;;;;;;;;;;19.08;63.50;100409.59;5014425;28;1072;-80
2021/06/01 03:27:40;;;;;;;;;;;;;;;19.11;63.43;100426.38;5011799;28;1820;-83
2021/06/01 03:30:09;;;;;;;;;;;;;;;19.09;63.53;100418.47;5007361;28;1615;-81
2021/06/01 03:32:37;;;;;;;;;;;;;;;19.03;63.41;100414.53;5013222;28;1322;-82
2021/06/01 03:35:06;;;;;;;;;;;;;;;19.08;63.52;100422.16;5016721;28;1595;-81
2021/06/01 03:37:32;;;;;;;;;;;;;;;19.07;63.18;100410.56;5014195;28;1491;-81
2021/06/01 03:40:05;;;;;;;;;;;;;;;19.08;63.09;100430.22;5014185;28;1910;-81
2021/06/01 03:42:31;;;;;;;;;;;;;;;19.08;63.50;100430.22;5013312;28;1476;-80
2021/06/01 03:44:59;;;;;;;;;;;;;;;19.10;63.45;100432.72;5013598;28;1602;-83
2021/06/01 03:47:26;;;;;;;;;;;;;;;19.07;63.17;100413.25;5014330;28;1607;-79
2021/06/01 03:49:52;;;;;;;;;;;;;;;19.03;63.35;100435.13;5021134;28;1417;-80
2021/06/01 03:52:20;;;;;;;;;;;;;;;19.06;63.03;100424.97;5013556;28;1245;-82
2021/06/01 03:54:46;;;;;;;;;;;;;;;19.07;62.81;100394.50;5011755;28;1010;-79
2021/06/01 03:57:12;;;;;;;;;;;;;;;19.10;63.26;100430.03;5013476;28;1683;-82
2021/06/01 03:59:38;;;;;;;;;;;;;;;19.06;63.28;100413.44;5011450;28;1914;-79
2021/06/01 04:02:06;;;;;;;;;;;;;;;19.11;63.41;100424.53;5005197;28;1532;-82
2021/06/01 04:04:33;;;;;;;;;;;;;;;19.12;63.01;100428.06;5014926;28;1690;-80
2021/06/01 04:06:59;;;;;;;;;;;;;;;19.12;63.42;100428.06;5013533;28;1695;-81
2021/06/01 04:09:26;;;;;;;;;;;;;;;19.09;63.16;100413.13;5000640;28;1722;-79
2021/06/01 04:11:52;;;;;;;;;;;;;;;19.12;63.35;100412.84;5013219;28;1580;-79
2021/06/01 04:14:19;;;;;;;;;;;;;;;19.15;63.19;100423.25;5024425;28;1497;-79
2021/06/01 04:16:45;;;;;;;;;;;;;;;19.18;63.62;100422.13;5026774;28;1003;-81
2021/06/01 04:19:11;;;;;;;;;;;;;;;19.18;64.04;100431.03;5013745;28;1961;-79
2021/06/01 04:21:37;;;;;;;;;;;;;;;19.23;63.75;100414.50;5020710;28;1485;-79
2021/06/01 04:24:04;;;;;;;;;;;;;;;19.25;63.47;100428.59;5014333;28;1792;-79
2021/06/01 04:26:31;;;;;;;;;;;;;;;19.22;63.30;100423.53;5012907;28;1706;-82
2021/06/01 04:28:58;;;;;;;;;;;;;;;19.30;64.05;100426.34;5014477;28;1465;-82
2021/06/01 04:31:27;;;;;;;;;;;;;;;19.30;64.64;100437.06;5014348;28;1347;-79
2021/06/01 04:33:53;;;;;;;;;;;;;;;19.30;64.08;100430.84;5014045;28;1589;-79
2021/06/01 04:36:19;;;;;;;;;;;;;;;19.27;63.97;100432.81;5023173;23;3689;-47
2021/06/01 04:38:45;;;;;;;;;;;;;;;19.27;64.12;100431.97;5005630;28;1975;-47
2021/06/01 04:41:11;;;;;;;;;;;;;;;19.27;64.01;100427.44;5009733;28;1321;-47
2021/06/01 04:43:38;;;;;;;;;;;;;;;19.27;63.39;100419.41;5010106;28;1531;-46
2021/06/01 04:46:04;;;;;;;;;;;;;;;19.23;63.44;100415.34;5013776;28;1453;-44
2021/06/01 04:48:30;;;;;;;;;;;;;;;19.23;63.95;100431.41;5013892;28;1562;-44
2021/06/01 04:50:56;;;;;;;;;;;;;;;19.26;63.81;100435.66;5013217;28;1507;-44
2021/06/01 04:53:22;;;;;;;;;;;;;;;19.27;63.65;100437.34;5013123;28;1540;-45
2021/06/01 04:55:48;;;;;;;;;;;;;;;19.31;64.52;100428.00;5013113;28;1823;-45
2021/06/01 04:58:14;;;;;;;;;;;;;;;19.35;65.50;100434.78;5010494;28;1914;-44
2021/06/01 05:00:41;;;;;;;;;;;;;;;19.36;65.47;100447.19;5009197;28;1556;-45
2021/06/01 05:03:07;;;;;;;;;;;;;;;19.37;65.00;100440.00;5010814;28;1601;-44
2021/06/01 05:05:33;;;;;;;;;;;;;;;19.35;64.52;100450.84;5010561;28;1571;-45
2021/06/01 05:07:59;;;;;;;;;;;;;;;19.38;64.54;100439.84;5013301;28;1646;-44
2021/06/01 05:10:25;;;;;;;;;;;;;;;19.34;65.95;100443.81;5014333;28;1344;-44
2021/06/01 05:12:51;;;;;;;;;;;;;;;19.37;64.79;100445.34;5012552;28;1469;-44
2021/06/01 05:15:17;;;;;;;;;;;;;;;19.38;65.29;100441.69;5010622;28;1588;-45
2021/06/01 05:17:45;;;;;;;;;;;;;;;19.41;66.15;100436.88;5011953;28;1586;-45
2021/06/01 05:20:11;;;;;;;;;;;;;;;19.45;66.36;100438.25;5011506;28;1910;-45
2021/06/01 05:22:37;;;;;;;;;;;;;;;19.52;66.24;100441.22;5011585;28;1702;-46
2021/06/01 05:25:04;;;;;;;;;;;;;;;19.46;66.61;100447.19;5012178;28;1701;-45
2021/06/01 05:27:30;;;;;;;;;;;;;;;19.43;65.06;100436.72;5011377;28;1512;-45
2021/06/01 05:29:59;;;;;;;;;;;;;;;19.37;64.66;100448.88;5010438;28;1594;-46
2021/06/01 05:35:17;;;;;;;;;;;;;;;19.40;66.67;100450.44;5001070;28;1812;-45
2021/06/01 05:37:43;;;;;;;;;;;;;;;19.37;65.14;100445.34;5008860;28;1556;-45
2021/06/01 05:40:10;;;;;;;;;;;;;;;19.39;65.35;100452.25;5005423;28;1902;-47
2021/06/01 05:42:36;;;;;;;;;;;;;;;19.44;66.52;100441.94;5012157;28;1555;-45
2021/06/01 05:45:02;;;;;;;;;;;;;;;19.32;65.02;100445.81;5010256;28;1550;-45
2021/06/01 05:47:27;;;;;;;;;;;;;;;19.37;66.93;100438.16;5007417;28;1529;-45
2021/06/01 05:49:53;;;;;;;;;;;;;;;19.44;66.55;100450.00;5012650;28;1516;-44
2021/06/01 05:52:21;;;;;;;;;;;;;;;19.43;67.58;100448.28;5012544;28;1555;-45
2021/06/01 05:54:47;;;;;;;;;;;;;;;19.40;65.75;100445.09;5010896;28;1414;-45
2021/06/01 05:57:13;;;;;;;;;;;;;;;19.44;67.78;100438.44;5010849;28;1587;-44
2021/06/01 05:59:39;;;;;;;;;;;;;;;19.46;68.64;100442.66;5008795;28;1910;-45
2021/06/01 06:02:06;;;;;;;;;;;;;;;19.44;67.00;100446.47;5010895;28;1467;-45
2021/06/01 06:04:32;;;;;;;;;;;;;;;19.43;66.67;100447.44;5007702;28;1555;-45
2021/06/01 06:06:58;;;;;;;;;;;;;;;19.43;67.36;100456.34;5009771;28;1465;-44
2021/06/01 06:09:25;;;;;;;;;;;;;;;19.42;67.99;100438.56;5004633;28;1637;-45
2021/06/01 06:11:51;;;;;;;;;;;;;;;19.46;68.64;100445.34;5007558;28;1545;-45
2021/06/01 06:14:17;;;;;;;;;;;;;;;19.50;68.54;100447.69;5010195;28;1562;-45
2021/06/01 06:16:46;;;;;;;;;;;;;;;19.46;68.04;100441.81;5011654;28;2126;-45
2021/06/01 06:19:12;;;;;;;;;;;;;;;19.47;69.09;100444.31;5011930;28;1910;-45
2021/06/01 06:21:38;;;;;;;;;;;;;;;19.51;69.78;100450.25;5012148;28;1590;-44
2021/06/01 06:24:05;;;;;;;;;;;;;;;19.60;68.53;100451.22;5009631;28;1908;-45
2021/06/01 06:26:32;;;;;;;;;;;;;;;19.59;69.81;100449.50;5009281;28;1543;-46
2021/06/01 06:28:58;;;;;;;;;;;;;;;19.55;69.11;100450.81;5012319;28;1442;-46
2021/06/01 06:31:24;;;;;;;;;;;;;;;19.52;68.94;100446.59;5007663;28;1658;-45
2021/06/01 06:33:50;;;;;;;;;;;;;;;19.47;68.28;100449.69;5008671;28;1528;-45
2021/06/01 06:36:16;;;;;;;;;;;;;;;19.52;68.88;100453.75;5007626;28;1970;-45
2021/06/01 06:38:46;;;;;;;;;;;;;;;19.56;68.33;100457.88;5007934;28;1909;-45
2021/06/01 06:41:13;;;;;;;;;;;;;;;19.49;65.68;100452.22;5013228;28;1823;-45
2021/06/01 06:43:44;;;;;;;;;;;;;;;19.41;65.57;100461.00;5011075;28;2009;-45
2021/06/01 06:46:14;;;;;;;;;;;;;;;19.31;66.21;100457.50;5010644;28;1508;-45
2021/06/01 06:48:40;;;;;;;;;;;;;;;19.35;66.74;100450.84;5007914;28;2195;-45
2021/06/01 06:51:12;;;;;;;;;;;;;;;19.34;66.43;100451.88;5010348;28;1772;-46
2021/06/01 06:53:41;;;;;;;;;;;;;;;19.35;67.13;100461.59;5011402;28;1594;-45
2021/06/01 06:56:07;;;;;;;;;;;;;;;19.37;67.15;100464.13;5012811;28;1476;-45
2021/06/01 06:58:33;;;;;;;;;;;;;;;19.37;67.80;100456.91;5012186;28;1977;-46
2021/06/01 07:01:00;;;;;;;;;;;;;;;19.36;67.25;100452.56;5011968;28;1649;-45
2021/06/01 07:03:26;;;;;;;;;;;;;;;19.35;66.79;100445.50;5008824;28;1515;-45
2021/06/01 07:05:52;;;;;;;;;;;;;;;19.38;67.01;100458.63;5005883;28;1600;-45
2021/06/01 07:08:18;;;;;;;;;;;;;;;19.37;66.49;100451.56;5010572;28;1690;-45
2021/06/01 07:10:44;;;;;;;;;;;;;;;19.36;66.99;100457.94;5012519;28;1344;-46
2021/06/01 07:13:12;;;;;;;;;;;;;;;19.37;66.27;100454.25;5011283;28;1433;-45
2021/06/01 07:15:44;;;;;;;;;;;;;;;19.36;66.38;100463.28;5008811;28;1594;-45
2021/06/01 07:18:12;;;;;;;;;;;;;;;19.37;66.43;100453.41;5011265;28;1770;-45
2021/06/01 07:20:38;;;;;;;;;;;;;;;19.37;66.34;100448.03;5011223;28;1971;-46
2021/06/01 07:23:04;;;;;;;;;;;;;;;19.37;65.86;100448.03;5008670;28;1665;-45
2021/06/01 07:25:30;;;;;;;;;;;;;;;19.35;66.31;100455.38;5012837;28;1024;-45
2021/06/01 07:27:56;;;;;;;;;;;;;;;19.35;66.39;100458.06;5011749;28;1988;-45
2021/06/01 07:30:22;;;;;;;;;;;;;;;19.36;66.58;100457.06;5010996;28;2458;-45
2021/06/01 07:32:48;;;;;;;;;;;;;;;19.36;66.54;100467.78;5010887;28;1728;-45
2021/06/01 07:35:16;;;;;;;;;;;;;;;19.35;65.88;100472.31;5011694;28;1606;-45
2021/06/01 07:37:42;;;;;;;;;;;;;;;19.35;66.48;100460.75;5008972;28;1531;-45
2021/06/01 07:40:09;;;;;;;;;;;;;;;19.32;65.96;100456.53;5010541;28;1883;-45
2021/06/01 07:42:35;;;;;;;;;;;;;;;19.35;66.25;100468.78;5009512;28;2226;-46
2021/06/01 07:45:01;;;;;;;;;;;;;;;19.35;65.93;100471.47;5007408;28;1586;-45
2021/06/01 07:47:28;;;;;;;;;;;;;;;19.34;66.22;100469.75;5010539;28;1636;-45
2021/06/01 07:49:54;;;;;;;;;;;;;;;19.33;66.47;100479.66;5009611;28;1556;-45
2021/06/01 07:52:21;;;;;;;;;;;;;;;19.31;66.47;100476.28;5006461;28;1670;-45
2021/06/01 07:54:47;;;;;;;;;;;;;;;19.31;65.85;100470.91;5003805;28;1792;-45
2021/06/01 07:57:13;;;;;;;;;;;;;;;19.34;66.55;100486.72;5007504;28;1517;-46
2021/06/01 07:59:39;;;;;;;;;;;;;;;19.33;66.82;100478.81;5008512;28;1975;-45
2021/06/01 08:02:07;;;;;;;;;;;;;;;19.34;66.69;100478.69;5010412;28;1601;-45
2021/06/01 08:04:33;;;;;;;;;;;;;;;19.32;66.27;100471.75;5012292;28;1000;-45
2021/06/01 08:07:03;;;;;;;;;;;;;;;19.37;66.58;100490.94;5011121;28;1848;-45
2021/06/01 08:09:30;;;;;;;;;;;;;;;19.34;66.25;100488.53;5006903;28;1527;-45
2021/06/01 08:11:56;;;;;;;;;;;;;;;19.36;66.13;100495.47;5009813;28;1546;-46
2021/06/01 08:14:22;;;;;;;;;;;;;;;19.35;66.16;100480.34;5009044;28;1622;-46
2021/06/01 08:16:48;;;;;;;;;;;;;;;19.34;66.24;100480.50;5010557;28;1600;-46
2021/06/01 08:19:16;;;;;;;;;;;;;;;19.35;66.29;100480.34;5012532;28;1910;-45
2021/06/01 08:21:50;;;;;;;;;;;;;;;19.38;66.57;100477.41;5011461;28;1665;-45
2021/06/01 08:24:16;;;;;;;;;;;;;;;19.40;66.78;100479.94;5009737;28;1612;-45
2021/06/01 08:26:43;;;;;;;;;;;;;;;19.39;66.84;100492.47;5012254;28;1576;-45
2021/06/01 08:29:09;;;;;;;;;;;;;;;19.42;66.36;100492.19;5013731;28;1531;-46
2021/06/01 08:31:36;;;;;;;;;;;;;;;19.41;66.88;100493.19;5013796;28;1345;-45
2021/06/01 08:34:02;;;;;;;;;;;;;;;19.41;66.68;100503.06;5014820;28;1953;-46
2021/06/01 08:36:28;;;;;;;;;;;;;;;19.39;66.61;100500.53;5012567;28;1676;-45
2021/06/01 08:38:54;;;;;;;;;;;;;;;19.41;66.24;100498.53;5014289;28;1910;-45
2021/06/01 08:41:20;;;;;;;;;;;;;;;19.39;66.79;100499.69;5013060;28;1306;-45
2021/06/01 08:43:50;;;;;;;;;;;;;;;19.37;66.45;100507.88;5015043;28;1882;-45
2021/06/01 08:46:16;;;;;;;;;;;;;;;19.41;67.16;100509.28;5013422;28;1784;-46
2021/06/01 08:48:43;;;;;;;;;;;;;;;19.39;66.56;100499.69;5015398;28;1872;-44
2021/06/01 08:51:09;;;;;;;;;;;;;;;19.41;66.26;100498.53;5012518;28;1515;-45
2021/06/01 08:53:35;;;;;;;;;;;;;;;19.44;67.27;100506.31;5012497;28;1638;-46
2021/06/01 08:56:02;;;;;;;;;;;;;;;19.44;66.51;100495.59;5014523;28;1468;-46
2021/06/01 08:58:28;;;;;;;;;;;;;;;19.48;66.99;100506.88;5013473;28;1799;-46
2021/06/01 09:00:55;;;;;;;;;;;;;;;19.46;66.67;100498.97;5014851;28;1902;-45
2021/06/01 09:03:23;;;;;;;;;;;;;;;19.47;67.22;100500.63;5014410;28;1723;-45
2021/06/01 09:06:07;;;;;;;;;;;;;;;19.47;67.12;100505.16;5011514;28;1585;-45
2021/06/01 09:08:52;;;;;;;;;;;;;;;19.48;66.91;100505.03;5011745;28;1571;-45
2021/06/01 09:11:30;;;;;;;;;;;;;;;19.39;66.94;100516.59;5013978;28;1592;-45
2021/06/01 09:14:17;;;;;;;;;;;;;;;19.38;66.77;100511.41;5014697;28;1357;-44
2021/06/01 09:22:27;;;;;;;;;;;;;;;19.35;66.57;100523.25;5011943;28;1444;-45
2021/06/01 09:24:59;;;;;;;;;;;;;;;19.35;66.83;100519.72;5014978;28;1135;-46
2021/06/01 09:27:28;;;;;;;;;;;;;;;19.33;66.17;100521.72;5013222;28;1650;-45
2021/06/01 09:29:54;;;;;;;;;;;;;;;19.37;66.77;100529.31;5006792;28;1687;-45
2021/06/01 09:32:23;;;;;;;;;;;;;;;19.39;67.11;100530.03;5013651;28;1686;-45
2021/06/01 09:34:50;;;;;;;;;;;;;;;19.44;67.18;100535.81;5015203;28;1512;-45
2021/06/01 09:37:17;;;;;;;;;;;;;;;19.44;67.03;100534.97;5003939;28;1476;-45
2021/06/01 09:39:43;;;;;;;;;;;;;;;19.45;67.61;100528.59;5011880;28;1911;-45
2021/06/01 09:42:25;;;;;;;;;;;;;;;19.46;67.91;100539.19;5015112;28;1691;-45
2021/06/01 09:45:01;;;;;;;;;;;;;;;19.44;67.09;100525.09;5008795;28;1585;-45
2021/06/01 09:47:41;;;;;;;;;;;;;;;19.44;67.38;100535.81;5009322;28;1611;-45
2021/06/01 09:50:12;;;;;;;;;;;;;;;19.47;68.95;100540.88;5006532;28;1586;-46
2021/06/01 09:52:44;;;;;;;;;;;;;;;19.48;68.71;100534.53;5012948;28;1618;-45
2021/06/01 09:55:14;;;;;;;;;;;;;;;19.51;67.67;100546.78;5011952;28;1138;-45
2021/06/01 09:57:42;;;;;;;;;;;;;;;19.51;67.04;100544.13;5016228;28;1665;-45
2021/06/01 10:00:12;;;;;;;;;;;;;;;19.50;68.18;100545.13;5012232;28;1902;-45
2021/06/01 10:02:39;;;;;;;;;;;;;;;19.48;68.30;100547.09;5012290;28;1672;-45
2021/06/01 10:05:12;;;;;;;;;;;;;;;19.50;67.60;100549.63;5013386;28;1624;-46
2021/06/01 10:07:38;;;;;;;;;;;;;;;19.53;67.41;100550.19;5019540;28;1695;-46
2021/06/01 10:10:12;;;;;;;;;;;;;;;19.50;67.46;100560.34;5013781;28;1336;-46
2021/06/01 10:12:38;;;;;;;;;;;;;;;19.57;67.76;100558.78;5013142;28;1516;-45
2021/06/01 10:15:05;;;;;;;;;;;;;;;19.56;68.61;100554.44;5013857;28;1603;-45
2021/06/01 10:17:31;;;;;;;;;;;;;;;19.52;67.85;100564.59;5014072;28;1644;-47
2021/06/01 10:19:57;;;;;;;;;;;;;;;19.55;67.97;100558.09;5017104;28;1887;-45
2021/06/01 10:22:24;;;;;;;;;;;;;;;19.52;68.26;100556.56;5012795;28;1558;-47
2021/06/01 10:24:50;;;;;;;;;;;;;;;19.50;67.69;100557.66;5017746;28;1569;-45
2021/06/01 10:27:16;;;;;;;;;;;;;;;19.48;68.15;100558.66;5011805;28;1632;-46
2021/06/01 10:29:42;;;;;;;;;;;;;;;19.47;68.30;100562.31;5011970;28;1641;-46
2021/06/01 10:32:09;;;;;;;;;;;;;;;19.47;68.16;100551.59;5009076;28;1606;-47
2021/06/01 10:34:36;;;;;;;;;;;;;;;19.51;68.90;100557.53;5012399;28;1651;-46
2021/06/01 10:42:39;;;;;;;;;;;;;;;19.54;68.68;100572.50;5011510;28;1552;-46
2021/06/01 10:50:58;;;;;;;;;;;;;;;19.50;68.08;100568.38;5007002;28;1465;-46
2021/06/01 10:53:25;;;;;;;;;;;;;;;19.51;67.59;100556.69;5011659;28;1441;-45
2021/06/01 10:56:00;;;;;;;;;;;;;;;19.53;68.64;100576.16;5014806;28;1329;-45
2021/06/01 10:58:29;;;;;;;;;;;;;;;19.52;67.90;100563.72;5013527;28;1812;-46
2021/06/01 11:04:06;;;;;;;;;;;;;;;19.54;67.13;100573.34;5006907;28;1738;-46
2021/06/01 11:06:47;;;;;;;;;;;;;;;19.56;67.86;100570.53;5011502;28;1576;-46
2021/06/01 11:09:44;;;;;;;;;;;;;;;19.57;67.49;100561.47;5010669;28;2170;-46
2021/06/01 11:12:26;;;;;;;;;;;;;;;19.56;67.39;100565.16;5013258;28;1988;-46
2021/06/01 11:14:54;;;;;;;;;;;;;;;19.54;67.35;100559.94;5011657;28;2509;-45
2021/06/01 11:17:31;;;;;;;;;;;;;;;19.56;67.85;100565.16;5013005;28;1536;-46
2021/06/01 11:20:06;;;;;;;;;;;;;;;19.58;67.29;100563.19;5010142;28;1975;-47
2021/06/01 11:22:38;;;;;;;;;;;;;;;19.59;67.57;100570.22;5012732;28;1468;-45
2021/06/01 11:28:55;;;;;;;;;;;;;;;19.58;67.51;100564.00;5011591;28;1624;-46
2021/06/01 11:33:42;;;;;;;;;;;;;;;19.57;66.66;100572.19;5007009;28;1480;-45
2021/06/01 11:36:10;;;;;;;;;;;;;;;19.58;66.72;100576.59;5010099;28;1449;-46
2021/06/01 11:38:40;;;;;;;;;;;;;;;19.56;66.77;100573.19;5009869;28;1661;-46
2021/06/01 11:43:55;;;;;;;;;;;;;;;19.67;67.39;100583.75;5009722;28;1329;-45
2021/06/01 11:46:30;;;;;;;;;;;;;;;19.67;67.69;100583.75;5008366;28;1541;-46
2021/06/01 11:51:42;;;;;;;;;;;;;;;19.67;67.77;100587.28;5006585;28;1952;-45
2021/06/01 11:54:11;;;;;;;;;;;;;;;19.67;67.35;100589.97;5010011;28;1821;-46
2021/06/01 11:56:45;;;;;;;;;;;;;;;19.68;67.59;100591.66;5010865;28;1750;-46
2021/06/01 12:13:29;;;;;;;;;;;;;;;19.70;68.08;100594.22;5006323;28;1982;-45
2021/06/01 12:18:42;;;;;;;;;;;;;;;19.66;68.03;100600.84;5006648;28;1532;-45
2021/06/01 12:21:09;;;;;;;;;;;;;;;19.66;67.24;100604.38;5006520;28;1983;-45
2021/06/01 12:23:36;;;;;;;;;;;;;;;19.66;66.89;100606.22;5007853;28;1778;-45
2021/06/01 12:26:11;;;;;;;;;;;;;;;19.64;67.66;100622.44;5012298;28;1500;-46
2021/06/01 12:31:45;;;;;;;;;;;;;;;19.64;67.49;100610.88;5010939;28;1040;-46
2021/06/01 12:34:16;;;;;;;;;;;;;;;19.65;67.34;100617.94;5011111;28;1521;-46
2021/06/01 12:42:30;;;;;;;;;;;;;;;19.66;67.51;100608.91;5005800;28;1739;-45
2021/06/01 12:44:57;;;;;;;;;;;;;;;19.68;67.64;100612.28;5012171;28;1448;-46
2021/06/01 12:47:49;;;;;;;;;;;;;;;19.72;67.60;100602.16;5008699;28;1577;-46
2021/06/01 13:12:03;;;;;;;;;;;;;;;19.79;67.55;100646.19;4997423;28;1446;-46
2021/06/01 13:20:51;;;;;;;;;;;;;;;19.71;68.36;100662.13;5011041;28;1910;-46
2021/06/01 13:31:55;;;;;;;;;;;;;;;19.67;68.36;100657.03;5014619;28;1517;-47
2021/06/01 13:37:19;;;;;;;;;;;;;;;19.69;67.39;100659.56;5014516;28;1566;-48
2021/06/01 13:39:53;;;;;;;;;;;;;;;19.67;68.21;100664.22;5015500;28;1983;-46
2021/06/01 13:47:52;;;;;;;;;;;;;;;19.66;67.31;100678.66;5014563;28;1837;-46
2021/06/01 13:50:26;;;;;;;;;;;;;;;19.67;67.58;100680.31;5006743;28;1526;-46
2021/06/01 13:53:07;;;;;;;;;;;;;;;19.64;67.55;100677.94;5013622;28;1552;-46
2021/06/01 13:55:38;;;;;;;;;;;;;;;19.64;68.40;100681.47;5014908;28;1539;-46
2021/06/01 14:00:59;;;;;;;;;;;;;;;19.48;67.96;100686.56;5009147;28;2062;-48
2021/06/01 14:20:20;;;;;;;;;;;;;;;19.51;68.47;100707.72;5003366;28;1989;-46
2021/06/01 14:29:10;;;;;;;;;;;;;;;19.56;67.97;100704.63;5010319;28;1528;-46
2021/06/01 14:31:39;;;;;;;;;;;;;;;19.55;68.07;100719.84;5013236;28;1891;-46
2021/06/01 15:07:46;;;;;;;;;;;;;;;19.44;67.15;100725.38;5010101;28;2406;-47
2021/06/01 15:24:42;;;;;;;;;;;;;;;19.43;65.80;100732.53;5011151;28;1540;-47
2021/06/01 15:30:14;;;;;;;;;;;;;;;19.43;63.80;100731.72;5010423;28;1524;-47
2021/06/01 15:32:51;;;;;;;;;;;;;;;19.50;64.80;100756.13;5010754;28;1644;-46
2021/06/01 15:47:39;;;;;;;;;;;;;;;19.42;62.81;100759.53;4953244;28;1914;-46
2021/06/01 15:49:32;;;;;;;;;;;;;;;19.42;62.81;100746.97;5007700;28;2020;-46
2021/06/01 16:11:30;;;;;;;;;;;;;;;19.45;62.89;100776.16;5012785;28;1287;-45
2021/06/01 16:14:02;;;;;;;;;;;;;;;19.43;64.62;100785.34;5012615;28;1252;-45
2021/06/01 16:22:41;;;;;;;;;;;;;;;19.36;63.48;100790.41;5009159;28;1488;-46
2021/06/01 16:33:30;;;;;;;;;;;;;;;19.34;63.49;100781.66;5011529;28;2037;-45
2021/06/01 17:03:06;;;;;;;;;;;;;;;19.29;63.11;100805.34;4936494;29;1594;-45
2021/06/01 17:04:19;;;;;;;;;;;;;;;19.24;62.93;100805.75;5014028;28;1598;-46
2021/06/01 17:06:48;;;;;;;;;;;;;;;19.24;63.08;100803.09;5013957;28;2087;-45
2021/06/01 17:12:02;;;;;;;;;;;;;;;19.25;63.36;100795.88;5010231;28;1432;-45
2021/06/01 17:14:30;;;;;;;;;;;;;;;19.24;64.71;100812.97;5011025;28;1540;-45
2021/06/01 17:16:58;;;;;;;;;;;;;;;19.26;66.12;100811.00;5011300;28;1555;-46